Time;durP1;ratioP1;P1;durP2;ratioP2;P2;SDS_P1;SDS_P2;PMS_P1;PMS_P2;Temp;Humidity;BMP_temperature;BMP_pressure;BME280_temperature;BME280_humidity;BME280_pressure;Samples;Min_cycle;Max_cycle;Signal;HPM_P1;HPM_P2
2020/12/12 00:00:36;;;;;;;;;;;;;;;0.44;100.00;94517.16;5005422;28;19996;-48
2020/12/12 00:03:04;;;;;;;;;;;;;;;0.47;100.00;94511.72;5027448;28;19925;-53
2020/12/12 00:05:31;;;;;;;;;;;;;;;0.51;100.00;94507.09;4987367;28;19933;-50
2020/12/12 00:07:57;;;;;;;;;;;;;;;0.48;100.00;94495.19;5034215;28;19929;-54
2020/12/12 00:10:26;;;;;;;;;;;;;;;0.51;100.00;94509.69;4990331;28;19980;-53
2020/12/12 00:12:53;;;;;;;;;;;;;;;0.45;100.00;94508.44;5023693;28;19925;-50
2020/12/12 00:15:19;;;;;;;;;;;;;;;0.43;100.00;94513.75;5000076;28;19976;-50
2020/12/12 00:17:46;;;;;;;;;;;;;;;0.43;100.00;94495.59;5030188;28;19933;-49
2020/12/12 00:20:14;;;;;;;;;;;;;;;0.48;100.00;94492.59;4986044;28;19929;-56
2020/12/12 00:22:40;;;;;;;;;;;;;;;0.50;100.00;94495.09;5025517;28;19925;-53
2020/12/12 00:25:10;;;;;;;;;;;;;;;0.48;100.00;94492.59;4986210;28;19926;-50
2020/12/12 00:27:36;;;;;;;;;;;;;;;0.47;100.00;94491.78;5023387;28;19931;-50
2020/12/12 00:30:04;;;;;;;;;;;;;;;0.49;100.00;94491.66;4991445;28;19929;-49
2020/12/12 00:32:31;;;;;;;;;;;;;;;0.51;100.00;94507.91;5020059;28;19929;-51
2020/12/12 00:34:58;;;;;;;;;;;;;;;0.49;100.00;94496.03;5029525;28;20019;-50
2020/12/12 00:37:26;;;;;;;;;;;;;;;0.53;100.00;94507.78;4985421;28;19929;-57
2020/12/12 00:39:52;;;;;;;;;;;;;;;0.55;100.00;94506.72;5006601;28;20379;-49
2020/12/12 00:42:19;;;;;;;;;;;;;;;0.50;100.00;94506.28;4973343;28;20024;-54
2020/12/12 00:44:47;;;;;;;;;;;;;;;0.54;100.00;94502.47;5025334;28;20016;-55
2020/12/12 00:47:15;;;;;;;;;;;;;;;0.50;100.00;94495.91;4995548;28;20364;-51
2020/12/12 00:49:42;;;;;;;;;;;;;;;0.55;100.00;94495.50;5022647;28;19932;-53
2020/12/12 00:52:09;;;;;;;;;;;;;;;0.50;100.00;94501.09;4994701;28;19955;-49
2020/12/12 00:54:37;;;;;;;;;;;;;;;0.46;100.00;94491.94;5000582;28;20396;-52
2020/12/12 00:57:04;;;;;;;;;;;;;;;0.54;100.00;94505.06;4975723;28;19933;-51
2020/12/12 00:59:31;;;;;;;;;;;;;;;0.49;100.00;94507.22;5025839;28;19964;-52
2020/12/12 01:01:58;;;;;;;;;;;;;;;0.64;100.00;94503.31;4996507;28;19933;-49
2020/12/12 01:04:25;;;;;;;;;;;;;;;0.63;100.00;94508.63;5024548;28;20005;-51
2020/12/12 01:06:52;;;;;;;;;;;;;;;0.62;100.00;94507.81;4991367;28;19925;-50
2020/12/12 01:09:19;;;;;;;;;;;;;;;0.63;100.00;94506.84;5021703;28;20354;-52
2020/12/12 01:11:46;;;;;;;;;;;;;;;0.58;100.00;94506.41;4975457;28;19963;-51
2020/12/12 01:14:13;;;;;;;;;;;;;;;0.69;100.00;94501.16;5029154;28;19925;-54
2020/12/12 01:16:40;;;;;;;;;;;;;;;0.59;100.00;94497.72;5004131;28;20399;-49
2020/12/12 01:19:07;;;;;;;;;;;;;;;0.59;100.00;94502.91;5017469;28;19964;-50
2020/12/12 01:21:33;;;;;;;;;;;;;;;0.61;100.00;94497.56;5036104;28;19933;-50
2020/12/12 01:24:00;;;;;;;;;;;;;;;0.59;100.00;94502.91;4995733;28;19925;-51
2020/12/12 01:26:28;;;;;;;;;;;;;;;0.64;100.00;94503.31;5024265;28;19925;-50
2020/12/12 01:28:56;;;;;;;;;;;;;;;0.67;100.00;94507.41;4998065;28;19925;-51
2020/12/12 01:31:23;;;;;;;;;;;;;;;0.73;100.00;94511.25;5023838;28;20662;-49
2020/12/12 01:33:50;;;;;;;;;;;;;;;0.77;100.00;94510.84;4989586;28;19933;-49
2020/12/12 01:36:17;;;;;;;;;;;;;;;0.77;100.00;94516.03;5038480;28;19925;-51
2020/12/12 01:38:43;;;;;;;;;;;;;;;0.71;100.00;94514.78;4989363;28;19929;-54
2020/12/12 01:41:10;;;;;;;;;;;;;;;0.70;100.00;94507.97;5025212;28;19991;-51
2020/12/12 01:43:37;;;;;;;;;;;;;;;0.67;100.00;94504.81;5006739;28;19932;-51
2020/12/12 01:46:05;;;;;;;;;;;;;;;0.70;100.00;94505.38;5035047;28;20019;-52
2020/12/12 01:48:32;;;;;;;;;;;;;;;0.64;100.00;94502.50;4995495;28;19929;-52
2020/12/12 01:50:58;;;;;;;;;;;;;;;0.63;100.00;94499.06;5027717;28;20012;-50
2020/12/12 01:53:26;;;;;;;;;;;;;;;0.64;100.00;94500.72;5012647;28;20011;-50
2020/12/12 01:55:53;;;;;;;;;;;;;;;0.63;100.00;94498.25;5030382;28;19964;-50
2020/12/12 01:58:20;;;;;;;;;;;;;;;0.59;100.00;94497.72;4996690;28;20087;-52
2020/12/12 02:00:47;;;;;;;;;;;;;;;0.54;100.00;94501.63;5037025;28;19925;-51
2020/12/12 02:03:15;;;;;;;;;;;;;;;0.34;100.00;94495.56;5026813;28;19952;-55
2020/12/12 02:05:43;;;;;;;;;;;;;;;0.23;100.00;94493.88;4991999;28;20268;-50
2020/12/12 02:08:11;;;;;;;;;;;;;;;0.21;100.00;94496.63;5029114;28;19932;-50
2020/12/12 02:10:38;;;;;;;;;;;;;;;0.18;100.00;94496.88;4993835;28;20053;-49
2020/12/12 02:13:06;;;;;;;;;;;;;;;0.21;100.00;94491.44;5027051;28;19937;-50
2020/12/12 02:15:33;;;;;;;;;;;;;;;0.22;100.00;94482.72;4991486;28;19936;-49
2020/12/12 02:18:00;;;;;;;;;;;;;;;0.18;100.00;94481.34;5034568;28;19925;-57
2020/12/12 02:20:27;;;;;;;;;;;;;;;0.16;100.00;94485.00;4985524;28;20016;-53
2020/12/12 02:22:55;;;;;;;;;;;;;;;0.14;100.00;94479.97;5027873;28;19987;-51
2020/12/12 02:25:22;;;;;;;;;;;;;;;0.14;100.00;94487.72;4994352;28;19955;-51
2020/12/12 02:27:51;;;;;;;;;;;;;;;0.14;100.00;94485.13;5029016;28;19925;-54
2020/12/12 02:30:18;;;;;;;;;;;;;;;0.17;100.00;94486.63;4981250;28;19933;-50
2020/12/12 02:32:45;;;;;;;;;;;;;;;0.21;100.00;94481.06;5012856;28;19925;-57
2020/12/12 02:35:12;;;;;;;;;;;;;;;0.18;100.00;94478.75;4980343;28;20018;-49
2020/12/12 02:37:39;;;;;;;;;;;;;;;0.15;100.00;94467.81;5007041;28;20313;-49
2020/12/12 02:40:06;;;;;;;;;;;;;;;0.09;100.00;94469.16;4960870;28;20441;-51
2020/12/12 02:42:33;;;;;;;;;;;;;;;0.06;100.00;94474.59;5018431;28;19975;-49
2020/12/12 02:45:00;;;;;;;;;;;;;;;0.02;100.00;94468.03;5027053;28;19932;-50
2020/12/12 02:47:27;;;;;;;;;;;;;;;0.03;100.00;94468.84;4977903;28;19925;-50
2020/12/12 02:49:59;;;;;;;;;;;;;;;-0.02;100.00;94471.84;5040285;28;19925;-49
2020/12/12 02:52:26;;;;;;;;;;;;;;;-0.05;100.00;94470.31;4992112;28;19925;-49
2020/12/12 02:54:53;;;;;;;;;;;;;;;-0.09;100.00;94470.72;5021813;28;20012;-49
2020/12/12 02:57:21;;;;;;;;;;;;;;;-0.11;100.00;94463.06;5003581;28;19931;-51
2020/12/12 02:59:47;;;;;;;;;;;;;;;-0.15;100.00;94463.44;5022333;28;20028;-55
2020/12/12 03:02:14;;;;;;;;;;;;;;;-0.19;100.00;94467.25;4993373;28;20291;-52
2020/12/12 03:04:41;;;;;;;;;;;;;;;-0.24;100.00;94465.06;5036218;28;19979;-52
2020/12/12 03:07:08;;;;;;;;;;;;;;;-0.27;100.00;94465.31;4997724;28;19948;-50
2020/12/12 03:09:35;;;;;;;;;;;;;;;-0.27;100.00;94463.53;5024613;28;20379;-49
2020/12/12 03:12:01;;;;;;;;;;;;;;;-0.31;100.00;94476.84;4994620;28;19931;-49
2020/12/12 03:14:29;;;;;;;;;;;;;;;-0.39;100.00;94464.53;5036048;28;19926;-51
2020/12/12 03:16:56;;;;;;;;;;;;;;;-0.39;100.00;94463.72;4992740;28;19926;-52
2020/12/12 03:19:23;;;;;;;;;;;;;;;-0.38;100.00;94466.19;5029498;28;19929;-48
2020/12/12 03:21:50;;;;;;;;;;;;;;;-0.39;100.00;94463.72;5001540;28;19960;-48
2020/12/12 03:24:17;;;;;;;;;;;;;;;-0.39;100.00;94451.59;5023354;28;19935;-50
2020/12/12 03:26:44;;;;;;;;;;;;;;;-0.36;100.00;94450.53;5009195;28;19931;-51
2020/12/12 03:29:11;;;;;;;;;;;;;;;-0.35;100.00;94452.97;5041206;28;19951;-52
2020/12/12 03:31:38;;;;;;;;;;;;;;;-0.32;100.00;94451.91;5025173;28;19964;-56
2020/12/12 03:34:05;;;;;;;;;;;;;;;-0.28;100.00;94463.66;5000673;28;20316;-57
2020/12/12 03:36:32;;;;;;;;;;;;;;;-0.31;100.00;94463.91;5032483;28;20398;-50
2020/12/12 03:38:59;;;;;;;;;;;;;;;-0.26;100.00;94462.56;4988360;28;19925;-53
2020/12/12 03:41:26;;;;;;;;;;;;;;;-0.27;100.00;94466.13;5036345;28;20066;-53
2020/12/12 03:43:53;;;;;;;;;;;;;;;-0.30;100.00;94465.56;4972721;28;19937;-50
2020/12/12 03:46:20;;;;;;;;;;;;;;;-0.27;100.00;94462.72;5019287;28;19933;-52
2020/12/12 03:48:47;;;;;;;;;;;;;;;-0.28;100.00;94458.47;4975608;28;19952;-52
2020/12/12 03:51:14;;;;;;;;;;;;;;;-0.26;100.00;94454.81;5011210;28;19933;-52
2020/12/12 03:53:41;;;;;;;;;;;;;;;-0.23;100.00;94450.34;4979564;28;19957;-49
2020/12/12 03:56:11;;;;;;;;;;;;;;;-0.23;100.00;94451.16;5005031;28;19938;-52
2020/12/12 03:58:38;;;;;;;;;;;;;;;-0.16;100.00;94457.44;4979033;28;19934;-49
2020/12/12 04:01:05;;;;;;;;;;;;;;;-0.13;100.00;94464.16;5013265;28;19940;-52
2020/12/12 04:03:32;;;;;;;;;;;;;;;-0.11;100.00;94460.47;4993753;28;19956;-51
2020/12/12 04:06:00;;;;;;;;;;;;;;;-0.11;100.00;94462.22;5025223;28;19936;-53
2020/12/12 04:08:27;;;;;;;;;;;;;;;-0.12;100.00;94464.00;4991369;28;19926;-55
2020/12/12 04:10:54;;;;;;;;;;;;;;;-0.03;100.00;94465.84;5006814;28;20414;-49
2020/12/12 04:13:21;;;;;;;;;;;;;;;-0.02;100.00;94470.06;5011900;28;19977;-51
2020/12/12 04:15:48;;;;;;;;;;;;;;;0.08;100.00;94474.47;4970406;28;19930;-52
2020/12/12 04:18:15;;;;;;;;;;;;;;;0.11;100.00;94476.81;5005198;28;19925;-54
2020/12/12 04:20:42;;;;;;;;;;;;;;;0.11;100.00;94472.44;4969903;28;19972;-52
2020/12/12 04:23:10;;;;;;;;;;;;;;;0.08;100.00;94474.47;5015770;28;19925;-49
2020/12/12 04:25:36;;;;;;;;;;;;;;;0.09;100.00;94463.97;4980419;28;20023;-50
2020/12/12 04:28:04;;;;;;;;;;;;;;;0.12;100.00;94471.47;5022884;28;19929;-51
2020/12/12 04:30:31;;;;;;;;;;;;;;;0.22;100.00;94469.75;4977865;28;19925;-49
2020/12/12 04:32:58;;;;;;;;;;;;;;;0.23;100.00;94471.38;5007117;28;19930;-49
2020/12/12 04:35:25;;;;;;;;;;;;;;;0.20;100.00;94474.22;4997090;28;19935;-51
2020/12/12 04:37:52;;;;;;;;;;;;;;;0.18;100.00;94477.94;5016725;28;20015;-53
2020/12/12 04:40:19;;;;;;;;;;;;;;;0.20;100.00;94482.00;4990787;28;19944;-53
2020/12/12 04:42:46;;;;;;;;;;;;;;;0.09;100.00;94482.09;5021733;28;19989;-52
2020/12/12 04:45:13;;;;;;;;;;;;;;;0.14;100.00;94477.38;4966122;28;19925;-53
2020/12/12 04:47:39;;;;;;;;;;;;;;;0.17;100.00;94482.28;5009776;28;19933;-55
2020/12/12 04:50:06;;;;;;;;;;;;;;;0.09;100.00;94471.72;4996276;28;19925;-52
2020/12/12 04:52:33;;;;;;;;;;;;;;;0.12;100.00;94474.06;5020290;28;19933;-52
2020/12/12 04:55:00;;;;;;;;;;;;;;;0.10;100.00;94467.38;5022984;28;19976;-52
2020/12/12 04:57:27;;;;;;;;;;;;;;;0.12;100.00;94470.66;5001099;28;19932;-49
2020/12/12 04:59:54;;;;;;;;;;;;;;;0.18;100.00;94476.16;5022645;28;20012;-51
2020/12/12 05:02:22;;;;;;;;;;;;;;;0.22;100.00;94477.53;5009663;28;19929;-51
2020/12/12 05:04:49;;;;;;;;;;;;;;;0.19;100.00;94477.78;5022286;28;19925;-50
2020/12/12 05:07:17;;;;;;;;;;;;;;;0.26;100.00;94488.44;4989537;28;19933;-50
2020/12/12 05:09:44;;;;;;;;;;;;;;;0.28;100.00;94481.38;5032022;28;19932;-49
2020/12/12 05:12:13;;;;;;;;;;;;;;;0.21;100.00;94480.25;4980664;28;19951;-49
2020/12/12 05:14:41;;;;;;;;;;;;;;;0.17;100.00;94471.94;5027456;28;20750;-49
2020/12/12 05:17:08;;;;;;;;;;;;;;;0.15;100.00;94465.22;5001099;28;19949;-50
2020/12/12 05:19:35;;;;;;;;;;;;;;;0.20;100.00;94463.03;5039060;28;19943;-52
2020/12/12 05:22:02;;;;;;;;;;;;;;;0.20;100.00;94476.81;4997284;28;19929;-50
2020/12/12 05:24:30;;;;;;;;;;;;;;;0.28;100.00;94486.56;5026754;28;20379;-52
2020/12/12 05:26:59;;;;;;;;;;;;;;;0.35;100.00;94487.66;5010645;28;20008;-50
2020/12/12 05:29:25;;;;;;;;;;;;;;;0.35;100.00;94490.25;5035391;28;19951;-49
2020/12/12 05:31:53;;;;;;;;;;;;;;;0.25;100.00;94481.63;4974423;28;19957;-53
2020/12/12 05:34:20;;;;;;;;;;;;;;;0.20;100.00;94479.41;5035999;28;19959;-51
2020/12/12 05:36:48;;;;;;;;;;;;;;;0.22;100.00;94485.28;4999539;28;19968;-51
2020/12/12 05:39:15;;;;;;;;;;;;;;;0.32;100.00;94492.31;5021505;28;20035;-54
2020/12/12 05:41:42;;;;;;;;;;;;;;;0.41;100.00;94496.69;5035956;28;19925;-51
2020/12/12 05:44:09;;;;;;;;;;;;;;;0.47;100.00;94496.16;4995517;28;20007;-52
2020/12/12 05:46:36;;;;;;;;;;;;;;;0.47;100.00;94491.78;5039401;28;19979;-52
2020/12/12 05:49:04;;;;;;;;;;;;;;;0.42;100.00;94480.19;4997317;28;19972;-52
2020/12/12 05:51:31;;;;;;;;;;;;;;;0.34;100.00;94483.41;5039092;28;19961;-53
2020/12/12 05:53:58;;;;;;;;;;;;;;;0.33;100.00;94483.56;5004717;28;19935;-52
2020/12/12 05:56:26;;;;;;;;;;;;;;;0.39;100.00;94480.44;5030798;28;20615;-48
2020/12/12 05:58:53;;;;;;;;;;;;;;;0.50;100.00;94488.13;5011678;28;20016;-49
2020/12/12 06:01:20;;;;;;;;;;;;;;;0.46;100.00;94487.56;5006160;28;19926;-49
2020/12/12 06:03:50;;;;;;;;;;;;;;;0.48;100.00;94495.19;4968406;28;19926;-49
2020/12/12 06:06:20;;;;;;;;;;;;;;;0.52;100.00;94493.16;5007010;28;20008;-49
2020/12/12 06:08:48;;;;;;;;;;;;;;;0.49;100.00;94503.81;4977773;28;19934;-49
2020/12/12 06:11:16;;;;;;;;;;;;;;;0.51;100.00;94497.53;5004558;28;19965;-52
2020/12/12 06:13:42;;;;;;;;;;;;;;;0.53;100.00;94493.03;4977240;28;19926;-55
2020/12/12 06:16:09;;;;;;;;;;;;;;;0.50;100.00;94498.50;5015273;28;19925;-51
2020/12/12 06:18:38;;;;;;;;;;;;;;;0.44;100.00;94497.22;4977578;28;23684;-51
2020/12/12 06:21:07;;;;;;;;;;;;;;;0.41;100.00;94509.63;5010912;28;19932;-52
2020/12/12 06:23:36;;;;;;;;;;;;;;;0.39;100.00;94503.78;5007677;28;20380;-49
2020/12/12 06:26:02;;;;;;;;;;;;;;;0.37;100.00;94503.09;5007769;28;19952;-51
2020/12/12 06:28:29;;;;;;;;;;;;;;;0.39;100.00;94509.78;5021637;28;19967;-50
2020/12/12 06:30:56;;;;;;;;;;;;;;;0.36;100.00;94517.00;4995451;28;20303;-49
2020/12/12 06:33:26;;;;;;;;;;;;;;;0.36;100.00;94511.81;5023531;28;19925;-50
2020/12/12 06:35:55;;;;;;;;;;;;;;;0.47;100.00;94511.72;4990952;28;20003;-52
2020/12/12 06:38:23;;;;;;;;;;;;;;;0.50;100.00;94521.81;5026608;28;19925;-54
2020/12/12 06:40:51;;;;;;;;;;;;;;;0.53;100.00;94521.56;4986107;28;19999;-51
2020/12/12 06:43:31;;;;;;;;;;;;;;;0.52;100.00;94538.09;5025310;28;19934;-52
2020/12/12 06:45:59;;;;;;;;;;;;;;;0.74;100.00;94550.03;4994788;28;20363;-51
2020/12/12 06:48:26;;;;;;;;;;;;;;;0.68;100.00;94542.75;5033670;28;20376;-49
2020/12/12 06:50:54;;;;;;;;;;;;;;;0.68;100.00;94548.75;4997406;28;20020;-51
2020/12/12 06:53:23;;;;;;;;;;;;;;;0.64;100.00;94552.56;5026187;28;19971;-51
2020/12/12 06:56:12;;;;;;;;;;;;;;;0.64;100.00;94557.75;4990441;28;19933;-51
2020/12/12 06:58:39;;;;;;;;;;;;;;;0.59;100.00;94561.72;5027026;28;19976;-49
2020/12/12 07:01:24;;;;;;;;;;;;;;;0.55;100.00;94566.34;4990452;28;19925;-53
2020/12/12 07:03:55;;;;;;;;;;;;;;;0.57;100.00;94567.03;5038576;28;19929;-49
2020/12/12 07:06:24;;;;;;;;;;;;;;;0.53;100.00;94563.06;4995931;28;19978;-51
2020/12/12 07:08:51;;;;;;;;;;;;;;;0.42;100.00;94565.75;5021851;28;20392;-49
2020/12/12 07:11:22;;;;;;;;;;;;;;;0.64;100.00;94564.72;4997959;28;20114;-50
2020/12/12 07:13:49;;;;;;;;;;;;;;;0.67;100.00;94561.88;5011447;28;19933;-51
2020/12/12 07:16:16;;;;;;;;;;;;;;;0.65;100.00;94562.03;4991685;28;19953;-50
2020/12/12 07:18:43;;;;;;;;;;;;;;;0.60;100.00;94564.16;5033849;28;20379;-55
2020/12/12 07:21:11;;;;;;;;;;;;;;;0.59;100.00;94572.91;4992123;28;20033;-56
2020/12/12 07:23:38;;;;;;;;;;;;;;;0.67;100.00;94570.47;5030625;28;20020;-56
2020/12/12 07:26:05;;;;;;;;;;;;;;;0.78;100.00;94571.31;4996349;28;20411;-57
2020/12/12 07:28:32;;;;;;;;;;;;;;;0.85;100.00;94578.44;5032310;28;20028;-54
2020/12/12 07:30:59;;;;;;;;;;;;;;;0.79;100.00;94572.97;5028869;28;20352;-53
2020/12/12 07:33:26;;;;;;;;;;;;;;;0.78;100.00;94577.34;4991114;28;20356;-53
2020/12/12 07:35:53;;;;;;;;;;;;;;;0.79;100.00;94580.75;5025083;28;19925;-50
2020/12/12 07:38:19;;;;;;;;;;;;;;;0.73;100.00;94589.06;4992204;28;19973;-53
2020/12/12 07:40:47;;;;;;;;;;;;;;;0.70;100.00;94590.97;5018465;28;20304;-49
2020/12/12 07:43:14;;;;;;;;;;;;;;;0.83;100.00;94595.13;4989587;28;19925;-51
2020/12/12 07:45:54;;;;;;;;;;;;;;;0.85;100.00;94595.78;5021082;28;19926;-49
2020/12/12 07:48:22;;;;;;;;;;;;;;;0.82;100.00;94604.66;4989716;28;19931;-49
2020/12/12 07:50:50;;;;;;;;;;;;;;;1.03;100.00;94603.75;5022343;28;19925;-51
2020/12/12 07:53:17;;;;;;;;;;;;;;;0.94;100.00;94600.19;5001776;28;19940;-49
2020/12/12 07:55:52;;;;;;;;;;;;;;;1.09;100.00;94603.25;5022540;28;20304;-54
2020/12/12 07:58:19;;;;;;;;;;;;;;;1.05;100.00;94599.28;4990692;28;19983;-52
2020/12/12 08:00:51;;;;;;;;;;;;;;;1.14;100.00;94603.69;5019852;28;19980;-48
2020/12/12 08:03:19;;;;;;;;;;;;;;;1.15;100.00;94607.91;4991287;28;20007;-53
2020/12/12 08:05:45;;;;;;;;;;;;;;;1.24;100.00;94604.53;5022839;28;19971;-49
2020/12/12 08:08:12;;;;;;;;;;;;;;;1.05;100.00;94604.47;4999203;28;19929;-50
2020/12/12 08:10:39;;;;;;;;;;;;;;;1.25;100.00;94603.56;5026601;28;20003;-49
2020/12/12 08:13:06;;;;;;;;;;;;;;;1.08;100.00;94606.78;4994385;28;22798;-52
2020/12/12 08:15:35;;;;;;;;;;;;;;;1.22;100.00;94608.19;5028879;28;19929;-50
2020/12/12 08:18:13;;;;;;;;;;;;;;;1.29;100.00;94609.31;4990177;28;19925;-49
2020/12/12 08:20:39;;;;;;;;;;;;;;;1.22;100.00;94605.59;5003020;28;19930;-49
2020/12/12 08:23:07;;;;;;;;;;;;;;;1.13;100.00;94617.59;5028339;28;19931;-55
2020/12/12 08:25:34;;;;;;;;;;;;;;;1.17;100.00;94616.38;5013743;28;20379;-52
2020/12/12 08:28:06;;;;;;;;;;;;;;;1.15;100.00;94613.91;5025155;28;19933;-52
2020/12/12 08:30:32;;;;;;;;;;;;;;;1.47;100.00;94610.28;5007261;28;20426;-52
2020/12/12 08:33:08;;;;;;;;;;;;;;;1.69;100.00;94610.97;5024396;28;19980;-51
2020/12/12 08:35:53;;;;;;;;;;;;;;;1.35;100.00;94611.38;4991339;28;20024;-49
2020/12/12 08:38:20;;;;;;;;;;;;;;;1.35;100.00;94619.16;5031380;28;19951;-49
2020/12/12 08:40:47;;;;;;;;;;;;;;;1.29;100.00;94619.69;4987310;28;19925;-50
2020/12/12 08:43:15;;;;;;;;;;;;;;;1.25;100.00;94619.13;5030044;28;20303;-51
2020/12/12 08:45:42;;;;;;;;;;;;;;;1.29;100.00;94619.69;5002187;28;20366;-52
2020/12/12 08:48:09;;;;;;;;;;;;;;;1.32;100.00;94625.44;5031409;28;19929;-49
2020/12/12 08:50:46;;;;;;;;;;;;;;;1.38;100.00;94630.09;4995338;28;19931;-49
2020/12/12 08:53:29;;;;;;;;;;;;;;;1.49;100.00;94638.72;5032200;28;19925;-52
2020/12/12 08:55:57;;;;;;;;;;;;;;;1.74;100.00;94645.19;4978495;28;19955;-51
2020/12/12 08:58:31;;;;;;;;;;;;;;;1.60;100.00;94652.41;5024397;28;19925;-52
2020/12/12 09:01:08;;;;;;;;;;;;;;;1.24;100.00;94648.66;4994962;28;19929;-54
2020/12/12 09:03:35;;;;;;;;;;;;;;;1.32;100.00;94650.56;5027187;28;19933;-50
2020/12/12 09:06:05;;;;;;;;;;;;;;;1.31;100.00;94652.38;4998100;28;19933;-50
2020/12/12 09:08:33;;;;;;;;;;;;;;;1.35;100.00;94647.72;5026678;28;20351;-54
2020/12/12 09:11:09;;;;;;;;;;;;;;;1.53;100.00;94659.09;5007318;28;19961;-53
2020/12/12 09:13:36;;;;;;;;;;;;;;;1.57;100.00;94654.44;5035253;28;19925;-53
2020/12/12 09:16:03;;;;;;;;;;;;;;;1.78;100.00;94655.16;4994435;28;19929;-53
2020/12/12 09:18:30;;;;;;;;;;;;;;;1.95;100.00;94651.06;5045578;28;19925;-53
2020/12/12 09:20:57;;;;;;;;;;;;;;;1.92;100.00;94659.13;4999238;28;19925;-55
2020/12/12 09:23:31;;;;;;;;;;;;;;;2.11;100.00;94664.34;5029839;28;20007;-51
2020/12/12 09:25:59;;;;;;;;;;;;;;;2.24;100.00;94655.44;4999918;28;22302;-54
2020/12/12 09:28:26;;;;;;;;;;;;;;;2.04;100.00;94652.03;5034502;28;20027;-57
2020/12/12 09:30:53;;;;;;;;;;;;;;;1.86;100.00;94659.69;4988163;28;19932;-51
2020/12/12 09:33:20;;;;;;;;;;;;;;;2.12;100.00;94676.38;5022268;28;20358;-54
2020/12/12 09:35:46;;;;;;;;;;;;;;;2.18;100.00;94692.41;5019450;28;22484;-53
2020/12/12 09:38:13;;;;;;;;;;;;;;;2.32;100.00;94677.19;4989846;28;20353;-53
2020/12/12 09:40:40;;;;;;;;;;;;;;;2.17;100.00;94675.97;5023519;28;19925;-51
2020/12/12 09:43:07;;;;;;;;;;;;;;;2.27;100.00;94679.41;4998845;28;19960;-55
2020/12/12 09:45:34;;;;;;;;;;;;;;;1.92;100.00;94679.91;5001592;28;20376;-53
2020/12/12 09:48:01;;;;;;;;;;;;;;;2.26;100.00;94677.72;4973129;28;19925;-52
2020/12/12 09:50:34;;;;;;;;;;;;;;;2.32;100.00;94676.38;5009947;28;20488;-49
2020/12/12 09:53:00;;;;;;;;;;;;;;;2.36;100.00;94683.75;4982343;28;19979;-49
2020/12/12 09:55:27;;;;;;;;;;;;;;;2.45;100.00;94686.50;5024593;28;20415;-53
2020/12/12 09:57:54;;;;;;;;;;;;;;;2.50;100.00;94692.09;4994900;28;19929;-52
2020/12/12 10:00:22;;;;;;;;;;;;;;;2.60;100.00;94683.31;5036598;28;20379;-52
2020/12/12 10:02:49;;;;;;;;;;;;;;;2.35;100.00;94682.13;4991670;28;19939;-56
2020/12/12 10:05:15;;;;;;;;;;;;;;;2.68;100.00;94690.41;5027413;28;19940;-51
2020/12/12 10:07:42;;;;;;;;;;;;;;;3.11;100.00;94690.84;4990543;28;19925;-54
2020/12/12 10:10:09;;;;;;;;;;;;;;;3.03;99.65;94692.38;5026892;28;19929;-56
2020/12/12 10:12:36;;;;;;;;;;;;;;;2.80;100.00;94701.50;4978759;28;19932;-55
2020/12/12 10:15:03;;;;;;;;;;;;;;;2.84;100.00;94700.25;5028810;28;19948;-53
2020/12/12 10:17:31;;;;;;;;;;;;;;;2.92;99.93;94708.16;5023244;28;19979;-51
2020/12/12 10:19:58;;;;;;;;;;;;;;;2.84;100.00;94710.66;5007451;28;20500;-52
2020/12/12 10:22:25;;;;;;;;;;;;;;;2.66;100.00;94697.53;5028550;28;20289;-55
2020/12/12 10:24:51;;;;;;;;;;;;;;;2.64;100.00;94702.06;4987046;28;20306;-50
2020/12/12 10:27:19;;;;;;;;;;;;;;;2.64;100.00;94701.25;5027080;28;19979;-54
2020/12/12 10:29:46;;;;;;;;;;;;;;;2.88;100.00;94699.00;4987820;28;19925;-55
2020/12/12 10:32:13;;;;;;;;;;;;;;;2.90;100.00;94694.47;5017300;28;19934;-50
2020/12/12 10:34:40;;;;;;;;;;;;;;;2.92;100.00;94702.13;4998567;28;19935;-53
2020/12/12 10:37:08;;;;;;;;;;;;;;;2.93;100.00;94699.41;5024396;28;19929;-51
2020/12/12 10:39:39;;;;;;;;;;;;;;;3.00;100.00;94700.47;4981791;28;19932;-51
2020/12/12 10:42:06;;;;;;;;;;;;;;;2.97;100.00;94707.75;5012781;28;19960;-55
2020/12/12 10:44:32;;;;;;;;;;;;;;;2.94;100.00;94706.25;4994064;28;19932;-52
2020/12/12 10:46:59;;;;;;;;;;;;;;;2.80;100.00;94704.09;5039753;28;19924;-53
2020/12/12 10:49:26;;;;;;;;;;;;;;;2.78;100.00;94696.41;4983585;28;19932;-53
2020/12/12 10:51:54;;;;;;;;;;;;;;;2.74;100.00;94699.44;5008233;28;20032;-55
2020/12/12 10:54:25;;;;;;;;;;;;;;;2.77;100.00;94684.38;4971926;28;19999;-52
2020/12/12 10:56:52;;;;;;;;;;;;;;;2.89;100.00;94687.66;5012069;28;19925;-51
2020/12/12 10:59:19;;;;;;;;;;;;;;;3.17;100.00;94688.50;4975582;28;20001;-50
2020/12/12 11:01:46;;;;;;;;;;;;;;;3.26;100.00;94685.03;5001391;28;19933;-53
2020/12/12 11:04:13;;;;;;;;;;;;;;;3.01;100.00;94676.09;5036884;28;19988;-53
2020/12/12 11:06:40;;;;;;;;;;;;;;;2.99;100.00;94669.38;4997310;28;20898;-53
2020/12/12 11:09:08;;;;;;;;;;;;;;;3.39;100.00;94678.66;5026689;28;20291;-49
2020/12/12 11:11:38;;;;;;;;;;;;;;;3.76;100.00;94676.81;5014612;28;19928;-51
2020/12/12 11:14:05;;;;;;;;;;;;;;;3.89;100.00;94689.50;5025561;28;19926;-50
2020/12/12 11:16:32;;;;;;;;;;;;;;;4.05;99.26;94676.59;4991404;28;19925;-53
2020/12/12 11:18:59;;;;;;;;;;;;;;;4.26;97.08;94672.88;5038339;28;19929;-55
2020/12/12 11:21:27;;;;;;;;;;;;;;;4.18;98.24;94684.06;4997455;28;19956;-51
2020/12/12 11:23:54;;;;;;;;;;;;;;;4.65;96.26;94677.78;5030161;28;19925;-54
2020/12/12 11:26:22;;;;;;;;;;;;;;;4.59;94.51;94684.41;4992277;28;19926;-49
2020/12/12 11:28:49;;;;;;;;;;;;;;;4.58;94.65;94685.38;5031298;28;19929;-51
2020/12/12 11:31:16;;;;;;;;;;;;;;;4.55;96.07;94690.09;4997806;28;19928;-53
2020/12/12 11:33:45;;;;;;;;;;;;;;;4.76;94.33;94701.81;5025534;28;20003;-51
2020/12/12 11:36:23;;;;;;;;;;;;;;;4.84;94.28;94708.06;4990986;28;19932;-51
2020/12/12 11:38:53;;;;;;;;;;;;;;;4.89;93.20;94714.50;5016015;28;20307;-56
2020/12/12 11:46:48;;;;;;;;;;;;;;;4.78;93.18;94730.38;4999415;28;19925;-55
2020/12/12 11:49:14;;;;;;;;;;;;;;;5.22;91.90;94725.13;5024397;28;19937;-52
2020/12/12 11:51:41;;;;;;;;;;;;;;;5.26;89.25;94728.25;4992662;28;19925;-49
2020/12/12 11:54:09;;;;;;;;;;;;;;;4.79;91.62;94724.22;5027115;28;20391;-53
2020/12/12 11:56:37;;;;;;;;;;;;;;;4.89;92.43;94726.72;4993121;28;19926;-52
2020/12/12 11:59:04;;;;;;;;;;;;;;;5.05;92.36;94728.63;5026666;28;19925;-54
2020/12/12 12:01:30;;;;;;;;;;;;;;;5.40;92.04;94725.91;5032918;28;20303;-54
2020/12/12 12:03:57;;;;;;;;;;;;;;;5.04;91.58;94724.38;4997756;28;20007;-51
2020/12/12 12:06:24;;;;;;;;;;;;;;;4.89;91.54;94734.56;5022835;28;19932;-52
2020/12/12 12:09:10;;;;;;;;;;;;;;;4.51;93.70;94726.94;4997521;28;19948;-49
2020/12/12 12:11:38;;;;;;;;;;;;;;;4.52;94.24;94731.16;5027622;28;20366;-53
2020/12/12 12:14:05;;;;;;;;;;;;;;;4.55;94.32;94726.63;4990918;28;19977;-54
2020/12/12 12:16:36;;;;;;;;;;;;;;;4.55;95.75;94719.63;5032848;28;20399;-52
2020/12/12 12:19:04;;;;;;;;;;;;;;;4.74;95.96;94734.28;4997802;28;20437;-55
2020/12/12 12:21:30;;;;;;;;;;;;;;;4.67;96.64;94734.06;5025332;28;20535;-51
2020/12/12 12:23:57;;;;;;;;;;;;;;;4.48;96.15;94729.03;5008225;28;19953;-50
2020/12/12 12:26:24;;;;;;;;;;;;;;;4.28;98.14;94734.38;5027039;28;19976;-52
2020/12/12 12:28:52;;;;;;;;;;;;;;;4.44;96.62;94733.72;4993097;28;19929;-53
2020/12/12 12:31:19;;;;;;;;;;;;;;;4.43;98.51;94737.28;5027412;28;20528;-52
2020/12/12 12:33:46;;;;;;;;;;;;;;;4.43;98.23;94728.63;5000898;28;20017;-49
2020/12/12 12:36:13;;;;;;;;;;;;;;;4.30;98.30;94736.81;5029757;28;20322;-50
2020/12/12 12:38:41;;;;;;;;;;;;;;;4.65;97.25;94735.19;4986093;28;20409;-52
2020/12/12 12:41:08;;;;;;;;;;;;;;;4.65;96.92;94741.22;5041184;28;19928;-52
2020/12/12 12:43:35;;;;;;;;;;;;;;;4.61;98.23;94741.66;4989270;28;19987;-51
2020/12/12 12:46:03;;;;;;;;;;;;;;;4.43;99.18;94750.31;5024918;28;19932;-51
2020/12/12 12:48:30;;;;;;;;;;;;;;;4.28;99.54;94751.81;4998864;28;19925;-49
2020/12/12 12:50:56;;;;;;;;;;;;;;;4.35;99.61;94757.28;5022398;28;19927;-49
2020/12/12 12:53:23;;;;;;;;;;;;;;;4.26;99.62;94766.78;5025064;28;19949;-53
2020/12/12 12:55:50;;;;;;;;;;;;;;;4.16;100.00;94776.47;5003816;28;19935;-53